createdAt,value
2023-07-08T00:04:11.735Z,7.20
2023-07-08T00:08:28.978Z,6.90
2023-07-08T00:12:49.114Z,6.32
2023-07-08T00:17:14.313Z,6.53
2023-07-08T00:21:31.597Z,5.50
2023-07-08T00:25:49.357Z,6.65
2023-07-08T00:30:20.941Z,6.85
2023-07-08T00:34:38.117Z,6.18
2023-07-08T00:38:55.262Z,6.45
2023-07-08T00:43:12.502Z,6.45
2023-07-08T00:47:29.696Z,7.40
2023-07-08T00:51:46.819Z,6.85
2023-07-08T00:56:10.660Z,6.25
2023-07-08T01:00:28.920Z,7.15
2023-07-08T01:05:00.334Z,6.47
2023-07-08T01:09:18.233Z,6.63
2023-07-08T01:13:42.220Z,6.60
2023-07-08T01:17:59.770Z,6.75
2023-07-08T01:22:16.899Z,6.60
2023-07-08T01:26:36.781Z,6.95
2023-07-08T01:30:54.762Z,6.88
2023-07-08T01:35:13.245Z,7.73
2023-07-08T01:39:32.121Z,7.10
2023-07-08T01:48:12.639Z,7.22
2023-07-08T01:52:29.805Z,7.10
2023-07-08T01:56:47.120Z,6.72
2023-07-08T02:01:04.993Z,7.45
2023-07-08T02:05:23.482Z,7.30
2023-07-08T02:09:40.897Z,7.30
2023-07-08T02:13:58.154Z,7.65
2023-07-08T02:18:15.467Z,7.68
2023-07-08T02:22:32.574Z,7.30
2023-07-08T02:26:50.011Z,6.97
2023-07-08T02:31:07.151Z,7.07
2023-07-08T02:35:27.465Z,7.40
2023-07-08T02:39:44.722Z,6.72
2023-07-08T02:44:01.948Z,7.25
2023-07-08T02:48:20.313Z,6.88
2023-07-08T02:52:37.582Z,7.05
2023-07-08T02:56:54.693Z,7.30
2023-07-08T03:01:11.863Z,7.18
2023-07-08T03:05:29.002Z,6.90
2023-07-08T03:09:46.126Z,7.13
2023-07-08T03:14:03.697Z,7.18
2023-07-08T03:18:22.510Z,7.03
2023-07-08T03:22:39.720Z,6.88
2023-07-08T03:26:56.881Z,6.88
2023-07-08T03:31:14.797Z,6.40
2023-07-08T03:35:32.229Z,7.47
2023-07-08T03:39:49.355Z,6.70
2023-07-08T03:44:06.487Z,7.20
2023-07-08T03:48:23.748Z,7.07
2023-07-08T03:52:40.937Z,7.18
2023-07-08T03:56:58.169Z,7.60
2023-07-08T04:01:17.849Z,7.03
2023-07-08T04:05:35.090Z,7.25
2023-07-08T04:09:52.242Z,7.50
2023-07-08T04:14:10.600Z,7.05
2023-07-08T04:18:28.032Z,7.45
2023-07-08T04:22:45.840Z,7.15
2023-07-08T04:27:03.099Z,6.50
2023-07-08T04:31:20.332Z,6.90
2023-07-08T04:35:39.323Z,7.18
2023-07-08T04:39:56.513Z,6.45
2023-07-08T04:44:14.239Z,6.93
2023-07-08T04:48:31.371Z,6.95
2023-07-08T04:52:48.869Z,6.70
2023-07-08T04:57:06.128Z,7.20
2023-07-08T05:01:23.309Z,6.68
2023-07-08T05:05:40.487Z,6.28
2023-07-08T05:09:59.604Z,6.32
2023-07-08T05:14:16.830Z,6.70
2023-07-08T05:18:34.001Z,6.20
2023-07-08T05:22:51.257Z,6.53
2023-07-08T05:27:08.370Z,6.00
2023-07-08T05:31:38.011Z,5.93
2023-07-08T05:36:03.139Z,6.00
2023-07-08T05:40:20.327Z,6.18
2023-07-08T05:44:37.479Z,5.40
2023-07-08T05:48:55.144Z,5.65
2023-07-08T05:53:12.954Z,5.95
2023-07-08T05:57:30.134Z,5.60
2023-07-08T06:01:47.302Z,5.57
2023-07-08T06:06:08.592Z,5.97
2023-07-08T06:10:26.283Z,5.85
2023-07-08T06:14:43.454Z,6.03
2023-07-08T06:19:00.625Z,6.05
2023-07-08T06:23:17.737Z,5.13
2023-07-08T06:27:34.857Z,5.78
2023-07-08T06:31:52.134Z,5.55
2023-07-08T06:36:09.463Z,5.63
2023-07-08T06:40:26.576Z,5.95
2023-07-08T06:44:53.432Z,5.97
2023-07-08T06:49:12.856Z,5.47
2023-07-08T06:53:30.064Z,5.43
2023-07-08T06:57:47.192Z,4.80
2023-07-08T07:02:04.542Z,4.90
2023-07-08T07:06:21.892Z,4.95
2023-07-08T07:10:39.261Z,5.53
2023-07-08T07:14:56.466Z,4.97
2023-07-08T07:19:13.671Z,5.07
2023-07-08T07:23:30.844Z,4.95
2023-07-08T07:27:48.017Z,5.30
2023-07-08T07:32:05.709Z,5.25
2023-07-08T07:36:23.068Z,5.28
2023-07-08T07:40:40.847Z,5.35
2023-07-08T07:44:58.151Z,5.03
2023-07-08T07:49:15.398Z,5.82
2023-07-08T07:53:32.862Z,5.68
2023-07-08T07:57:50.176Z,4.70
2023-07-08T08:02:08.447Z,4.95
2023-07-08T08:10:45.556Z,4.60
2023-07-08T08:15:02.691Z,4.75
2023-07-08T08:19:19.987Z,5.00
2023-07-08T08:23:37.463Z,5.00
2023-07-08T08:27:54.688Z,4.90
2023-07-08T08:32:12.033Z,4.97
2023-07-08T08:36:29.346Z,4.63
2023-07-08T08:40:47.166Z,4.57
2023-07-08T08:45:05.135Z,5.18
2023-07-08T08:49:22.663Z,4.85
2023-07-08T08:53:40.102Z,4.67
2023-07-08T08:58:07.979Z,4.60
2023-07-08T09:02:43.448Z,4.93
2023-07-08T09:07:13.775Z,4.55
2023-07-08T09:11:45.844Z,4.82
2023-07-08T09:16:45.025Z,4.28
2023-07-08T09:21:15.296Z,4.43
2023-07-08T09:25:41.303Z,4.90
2023-07-08T09:29:58.762Z,4.65
2023-07-08T09:34:18.660Z,4.68
2023-07-08T09:38:35.800Z,5.10
2023-07-08T09:42:55.386Z,4.90
2023-07-08T09:47:24.100Z,5.15
2023-07-08T09:51:41.320Z,4.35
2023-07-08T09:56:00.494Z,4.77
2023-07-08T10:00:20.674Z,4.97
2023-07-08T10:04:38.375Z,4.55
2023-07-08T10:13:41.407Z,4.10
2023-07-08T10:17:58.928Z,4.50
2023-07-08T10:22:42.046Z,4.72
2023-07-08T10:27:31.234Z,5.35
2023-07-08T10:32:12.443Z,4.70
2023-07-08T10:36:42.646Z,4.70
2023-07-08T10:41:20.450Z,4.90
2023-07-08T10:45:50.766Z,4.28
2023-07-08T10:50:22.826Z,4.88
2023-07-08T10:55:27.168Z,5.60
2023-07-08T11:00:04.999Z,4.55
2023-07-08T11:04:55.019Z,4.50
2023-07-08T11:09:18.544Z,4.40
2023-07-08T11:13:46.155Z,4.38
2023-07-08T11:18:17.409Z,4.70
2023-07-08T11:22:37.722Z,4.80
2023-07-08T11:27:28.711Z,4.60
2023-07-08T11:31:47.196Z,4.65
2023-07-08T11:36:06.130Z,4.60
2023-07-08T11:40:24.553Z,5.00
2023-07-08T11:44:51.028Z,4.95
2023-07-08T11:49:14.782Z,4.53
2023-07-08T11:53:31.905Z,5.00
2023-07-08T11:57:53.944Z,4.20
2023-07-08T12:02:13.738Z,4.30
2023-07-08T12:06:31.830Z,4.50
2023-07-08T12:10:53.902Z,4.32
2023-07-08T12:15:27.155Z,4.35
2023-07-08T12:19:47.949Z,4.63
2023-07-08T12:24:11.959Z,4.95
2023-07-08T12:28:29.172Z,5.35
2023-07-08T12:32:47.404Z,4.70
2023-07-08T12:37:04.991Z,4.30
2023-07-08T12:41:25.612Z,3.97
2023-07-08T12:45:42.751Z,5.15
2023-07-08T12:49:59.880Z,4.80
2023-07-08T12:54:17.882Z,4.88
2023-07-08T12:58:41.459Z,4.70
2023-07-08T13:03:04.703Z,4.15
2023-07-08T13:07:40.540Z,4.35
2023-07-08T13:11:58.769Z,4.43
2023-07-08T13:16:16.512Z,4.30
2023-07-08T13:20:33.969Z,4.30
2023-07-08T13:25:00.478Z,4.50
2023-07-08T13:29:19.820Z,4.90
2023-07-08T13:33:36.979Z,4.88
2023-07-08T13:37:55.756Z,5.10
2023-07-08T13:42:13.547Z,4.75
2023-07-08T13:46:36.083Z,4.35
2023-07-08T13:51:10.799Z,4.70
2023-07-08T13:55:29.559Z,4.00
2023-07-08T13:59:46.732Z,4.28
2023-07-08T14:04:04.773Z,4.87
2023-07-08T14:08:23.383Z,4.10
2023-07-08T14:12:40.570Z,4.38
2023-07-08T14:16:57.788Z,4.10
2023-07-08T14:21:14.953Z,4.20
2023-07-08T14:25:32.142Z,3.97
2023-07-08T14:29:52.236Z,4.47
2023-07-08T14:34:25.626Z,5.28
2023-07-08T14:38:42.742Z,4.20
2023-07-08T14:43:06.336Z,4.32
2023-07-08T14:47:23.521Z,4.40
2023-07-08T14:55:59.143Z,4.20
2023-07-08T15:00:18.879Z,4.22
2023-07-08T15:04:36.529Z,4.38
2023-07-08T15:08:54.060Z,4.00
2023-07-08T15:13:11.718Z,4.15
2023-07-08T15:17:29.047Z,4.40
2023-07-08T15:21:46.365Z,4.03
2023-07-08T15:26:03.820Z,3.80
2023-07-08T15:30:26.197Z,3.85
2023-07-08T15:34:43.397Z,4.35
2023-07-08T15:43:17.728Z,3.97
2023-07-08T15:51:51.989Z,4.05
2023-07-08T15:56:14.234Z,4.18
2023-07-08T16:00:34.411Z,4.07
2023-07-08T16:04:51.566Z,4.47
2023-07-08T16:09:08.911Z,4.87
2023-07-08T16:13:29.500Z,5.63
2023-07-08T16:17:46.850Z,5.25
2023-07-08T16:22:04.750Z,4.73
2023-07-08T16:26:21.997Z,4.68
2023-07-08T16:30:39.123Z,5.45
2023-07-08T16:34:56.343Z,4.85
2023-07-08T16:39:13.500Z,4.55
2023-07-08T16:43:32.846Z,4.28
2023-07-08T16:47:51.966Z,4.18
2023-07-08T16:52:15.644Z,4.72
2023-07-08T16:56:32.829Z,4.45
2023-07-08T17:00:50.278Z,4.20
2023-07-08T17:05:21.655Z,4.43
2023-07-08T17:09:40.102Z,5.70
2023-07-08T17:13:57.822Z,4.97
2023-07-08T17:18:21.341Z,4.90
2023-07-08T17:22:39.055Z,4.68
2023-07-08T17:26:56.383Z,4.57
2023-07-08T17:35:50.665Z,4.53
2023-07-08T17:40:21.618Z,4.20
2023-07-08T17:44:41.439Z,4.15
2023-07-08T17:48:59.850Z,4.50
2023-07-08T17:57:34.028Z,4.25
2023-07-08T18:01:51.445Z,4.38
2023-07-08T18:06:08.839Z,4.33
2023-07-08T18:10:28.545Z,4.55
2023-07-08T18:14:48.348Z,4.25
2023-07-08T18:19:06.090Z,4.18
2023-07-08T18:23:28.963Z,4.30
2023-07-08T18:27:46.418Z,4.53
2023-07-08T18:32:09.273Z,5.18
2023-07-08T18:36:26.415Z,5.88
2023-07-08T18:40:44.617Z,4.95
2023-07-08T18:45:01.796Z,5.50
2023-07-08T18:49:18.975Z,7.82
2023-07-08T18:53:36.110Z,7.03
2023-07-08T18:57:54.004Z,8.43
2023-07-08T19:02:29.685Z,7.93
2023-07-08T19:06:47.067Z,6.75
2023-07-08T19:11:06.077Z,6.47
2023-07-08T19:15:26.302Z,8.45
2023-07-08T19:19:43.469Z,15.63
2023-07-08T19:24:00.915Z,11.10
2023-07-08T19:28:18.100Z,8.05
2023-07-08T19:32:36.635Z,7.45
2023-07-08T19:36:55.939Z,16.85
2023-07-08T19:41:13.445Z,7.15
2023-07-08T19:45:30.975Z,6.63
2023-07-08T19:49:48.598Z,7.28
2023-07-08T19:54:06.008Z,6.13
2023-07-08T19:58:23.204Z,6.55
2023-07-08T20:02:40.493Z,8.10
2023-07-08T20:06:57.686Z,10.68
2023-07-08T20:11:16.156Z,6.50
2023-07-08T20:15:33.346Z,22.00
2023-07-08T20:19:50.506Z,7.78
2023-07-08T20:24:08.868Z,8.45
2023-07-08T20:28:44.601Z,8.00
2023-07-08T20:33:03.572Z,8.05
2023-07-08T20:37:21.497Z,8.38
2023-07-08T20:41:38.704Z,9.77
2023-07-08T20:45:56.859Z,13.90
2023-07-08T20:50:19.805Z,10.20
2023-07-08T20:54:37.076Z,7.40
2023-07-08T20:58:54.226Z,12.98
2023-07-08T21:03:12.224Z,8.38
2023-07-08T21:07:29.479Z,8.93
2023-07-08T21:11:46.683Z,8.38
2023-07-08T21:16:04.117Z,10.52
2023-07-08T21:20:23.982Z,9.98
2023-07-08T21:24:41.367Z,9.73
2023-07-08T21:29:01.493Z,8.30
2023-07-08T21:33:18.816Z,8.35
2023-07-08T21:37:35.988Z,8.57
2023-07-08T21:41:53.111Z,8.20
2023-07-08T21:46:11.304Z,9.23
2023-07-08T21:50:29.690Z,8.53
2023-07-08T21:54:46.853Z,9.82
2023-07-08T21:59:14.789Z,9.82
2023-07-08T22:03:31.944Z,9.85
2023-07-08T22:07:49.876Z,9.15
2023-07-08T22:12:13.422Z,8.82
2023-07-08T22:16:31.320Z,8.23
2023-07-08T22:21:15.697Z,8.90
2023-07-08T22:25:32.882Z,8.88
2023-07-08T22:29:50.065Z,9.77
2023-07-08T22:34:16.417Z,17.98
2023-07-08T22:38:33.574Z,10.20
2023-07-08T22:42:51.077Z,9.77
2023-07-08T22:47:13.818Z,9.63
2023-07-08T22:51:38.325Z,11.85
2023-07-08T22:55:55.546Z,10.10
2023-07-08T23:00:20.503Z,11.48
2023-07-08T23:04:37.640Z,10.30
2023-07-08T23:08:54.918Z,8.65
2023-07-08T23:13:20.549Z,8.57
2023-07-08T23:17:44.368Z,8.93
2023-07-08T23:22:01.683Z,8.77
2023-07-08T23:26:30.179Z,9.55
2023-07-08T23:30:47.324Z,9.27
2023-07-08T23:35:04.691Z,9.38
2023-07-08T23:39:25.731Z,9.20
2023-07-08T23:43:45.865Z,9.55
2023-07-08T23:48:03.656Z,8.70
2023-07-08T23:52:20.904Z,9.23
2023-07-08T23:56:38.071Z,9.20
